Impacts TAF Board INFO
FOR SITUATIONAL AWARENESS. NOT TO BE USED FOR FLIGHT PLANNING PURPOSES.
IDs:

KIAH - Houston/Bush Intl, TX, US

Issued at 0520 UTC 20 Feb 2017
Updated at 0613 UTC 20 Feb 2017
Potential Impact None Slight Moderate High
Time0553Z 20/07Z 20/08Z 20/09Z 20/10Z 20/11Z 20/12Z 20/13Z 20/14Z 20/15Z 20/16Z 20/17Z 20/18Z 20/19Z
Type OBS PRVL
  [TEMP]  
PRVL
  [TEMP]  
PRVL PRVL
  [TEMP]  
PRVL
  [TEMP]  
PRVL
  [TEMP]  
PRVL
  [TEMP]  
PRVL PRVL PRVL PRVL PRVL PRVL
VIS 5 4
  [2]  
4
  [2]  
5 5
  [3]  
5
  [3]  
5
  [3]  
5
  [3]  
5 5 4 4 4 4
CIG 6 5
  [4]  
5
  [4]  
6 6
  [7]  
6
  [7]  
6
  [7]  
6
  [7]  
6 6 10 10 10 10
Cover OVC OVC
  [OVC]  
OVC
  [OVC]  
OVC OVC
  [OVC]  
OVC
  [OVC]  
OVC
  [OVC]  
OVC
  [OVC]  
OVC OVC BKN BKN BKN BKN
FltCat IFR IFR
  [LIFR]  
IFR
  [LIFR]  
IFR IFR
  [IFR]  
IFR
  [IFR]  
IFR
  [IFR]  
IFR
  [IFR]  
IFR IFR MVFR MVFR MVFR MVFR
WX BR -DZ BR
  [-RA BR]  
-DZ BR
  [-RA BR]  
-RA BR VCTS -RA BR VCTS
  [TSRA]  
-RA BR VCTS
  [TSRA]  
-RA BR VCTS
  [TSRA]  
-RA BR VCTS
  [TSRA]  
-RA BR VCTS -RA BR VCTS SHRA VCTS SHRA VCTS SHRA VCTS SHRA VCTS
WDir 130 130
[130]
130
[130]
160 160
[VRB]
160
[VRB]
160
[VRB]
160
[VRB]
160 160 VRB VRB VRB VRB
WSpd 11 13
  [13]  
13
  [13]  
7 7
  [25]  
7
  [25]  
7
  [25]  
7
  [25]  
7 7 6 6 6 6
WGst -- --
  [--]  
--
  [--]  
-- --
  [--]  
--
  [--]  
--
  [--]  
--
  [--]  
-- -- -- -- -- --

Raw TAF
KIAH 200520Z 2006/2112 13013KT 4SM -DZ BR OVC005
  TEMPO 2006/2009 2SM -RA BR OVC004
  FM200900 16007KT 5SM -RA BR VCTS OVC006CB
  TEMPO 2010/2014 VRB25KT 3SM TSRA OVC007CB
  FM201600 VRB06KT 4SM SHRA VCTS BKN010CB
  FM202200 09006KT P6SM -RA SCT020 BKN035 BKN120
  FM210200 00000KT P6SM SCT015 BKN250
  FM210700 00000KT 3SM BR SCT007


Raw METAR
KIAH 200553Z 13011KT 5SM BR BKN006 OVC012 21/20 A2991 RMK AO2 SLP127 DZE40 P0000 60000 T02110200 10222 20211 402610200 53007 $
KIAH 200453Z 13013KT 4SM -DZ BR OVC005 21/20 A2990 RMK AO2 RAE53DZB53 SLP126 CIG 004V007 P0000 T02110200 $
KIAH 200353Z 12013KT 2 1/2SM -RA BR OVC005 21/20 A2988 RMK AO2 SLP118 P0000 T02110200 $

METAR Board
Radar Display
Forecast Discussion

FOR SITUATIONAL AWARENESS. NOT TO BE USED FOR FLIGHT PLANNING PURPOSES.

Page loaded:  06:13 UTC  |   10:13 PM Pacific  |   11:13 PM Mountain  |   12:13 AM Central  |   01:13 AM Eastern

 

ADVISORIES

FORECASTS

FORECASTS

OBSERVATIONS

USER TOOLS

ABOUT US